Time;durP1;ratioP1;P1;durP2;ratioP2;P2;SDS_P1;SDS_P2;PMS_P1;PMS_P2;Temp;Humidity;BMP_temperature;BMP_pressure;BME280_temperature;BME280_humidity;BME280_pressure;Samples;Min_cycle;Max_cycle;Signal;HPM_P1;HPM_P2
2024/01/12 00:01:15;;;;;;;18.40;9.60;;;;;;;-0.79;82.68;101402.05;130322;1269;114741;-64
2024/01/12 00:04:25;;;;;;;18.70;12.10;;;;;;;-0.79;82.69;101396.27;130177;1268;128899;-64
2024/01/12 00:07:26;;;;;;;18.90;10.90;;;;;;;-0.78;82.78;101395.75;130068;1278;114821;-64
2024/01/12 00:10:28;;;;;;;22.30;11.10;;;;;;;-0.78;82.64;101405.21;130062;1259;114870;-64
2024/01/12 00:13:30;;;;;;;20.80;10.70;;;;;;;-0.78;82.74;101408.20;130009;1271;115376;-64
2024/01/12 00:16:32;;;;;;;18.40;10.30;;;;;;;-0.77;82.84;101402.80;130071;1259;114778;-64
2024/01/12 00:19:34;;;;;;;19.00;10.30;;;;;;;-0.77;82.91;101409.45;130073;1259;114795;-64
2024/01/12 00:22:36;;;;;;;20.30;10.30;;;;;;;-0.77;82.82;101414.36;129978;1259;115406;-64
2024/01/12 00:25:38;;;;;;;21.50;11.50;;;;;;;-0.76;82.80;101417.89;129967;1256;114939;-64
2024/01/12 00:28:40;;;;;;;18.80;9.90;;;;;;;-0.74;82.83;101422.11;130061;1257;114847;-64
2024/01/12 00:31:42;;;;;;;20.90;10.30;;;;;;;-0.74;82.90;101424.38;129846;1259;114753;-64
2024/01/12 00:34:43;;;;;;;21.00;11.00;;;;;;;-0.72;82.99;101428.64;130181;1259;115615;-64
2024/01/12 00:37:48;;;;;;;19.70;10.60;;;;;;;-0.73;82.78;101433.52;130145;1259;114734;-64
2024/01/12 00:40:50;;;;;;;20.60;11.00;;;;;;;-0.78;82.71;101432.06;129963;1278;115200;-64
2024/01/12 00:43:52;;;;;;;21.60;10.80;;;;;;;-0.79;82.96;101431.17;130128;1260;114790;-64
2024/01/12 00:46:55;;;;;;;18.30;10.40;;;;;;;-0.77;83.13;101433.64;130238;1260;114787;-64
2024/01/12 00:49:56;;;;;;;21.20;10.40;;;;;;;-0.75;83.15;101439.64;130133;1278;128855;-64
2024/01/12 00:52:58;;;;;;;20.50;10.40;;;;;;;-0.73;83.18;101437.56;129992;1260;115057;-64
2024/01/12 00:56:00;;;;;;;19.20;11.20;;;;;;;-0.70;83.17;101440.77;130048;1269;114801;-65
2024/01/12 00:59:02;;;;;;;20.20;10.80;;;;;;;-0.67;83.26;101436.44;130072;1273;114891;-64
2024/01/12 01:02:04;;;;;;;20.20;11.50;;;;;;;-0.66;83.23;101440.13;130070;1277;114728;-64
2024/01/12 01:05:06;;;;;;;19.10;10.40;;;;;;;-0.66;83.34;101443.11;130222;1278;114793;-64
2024/01/12 01:08:08;;;;;;;19.90;10.80;;;;;;;-0.64;83.22;101439.98;130124;1271;114658;-64
2024/01/12 01:11:19;;;;;;;20.80;12.20;;;;;;;-0.61;83.36;101443.00;129434;1278;128578;-64
2024/01/12 01:14:24;;;;;;;20.90;11.30;;;;;;;-0.59;83.32;101444.61;130114;1278;114786;-64
2024/01/12 01:17:26;;;;;;;19.00;11.30;;;;;;;-0.57;83.35;101443.59;130096;1258;115148;-64
2024/01/12 01:20:28;;;;;;;17.10;10.60;;;;;;;-0.54;83.43;101437.83;130039;1278;114728;-65
2024/01/12 01:23:30;;;;;;;20.50;11.20;;;;;;;-0.52;83.55;101430.86;130179;1278;114806;-64
2024/01/12 01:26:32;;;;;;;17.70;10.20;;;;;;;-0.49;83.68;101429.68;129831;1265;114852;-64
2024/01/12 01:29:33;;;;;;;20.30;10.60;;;;;;;-0.47;83.37;101430.40;130040;1260;115376;-64
2024/01/12 01:32:35;;;;;;;22.50;10.50;;;;;;;-0.48;83.61;101429.86;130087;1270;114815;-65
2024/01/12 01:35:37;;;;;;;20.10;10.70;;;;;;;-0.45;83.18;101430.42;130021;1259;114697;-64
2024/01/12 01:38:39;;;;;;;20.90;10.40;;;;;;;-0.43;83.54;101430.13;130156;1260;114714;-64
2024/01/12 01:41:41;;;;;;;20.50;10.50;;;;;;;-0.40;83.63;101434.36;130228;1259;114718;-64
2024/01/12 01:44:43;;;;;;;21.30;11.60;;;;;;;-0.37;83.66;101436.33;129461;1268;114755;-64
2024/01/12 01:47:46;;;;;;;22.90;11.60;;;;;;;-0.36;83.63;101440.73;130071;1269;114718;-64
2024/01/12 01:50:48;;;;;;;20.70;11.70;;;;;;;-0.35;83.69;101437.94;129927;1278;114818;-64
2024/01/12 01:53:50;;;;;;;20.40;10.90;;;;;;;-0.36;83.59;101441.09;130179;1258;115162;-64
2024/01/12 01:56:52;;;;;;;21.50;11.10;;;;;;;-0.36;83.54;101439.51;129757;1263;116544;-65
2024/01/12 01:59:55;;;;;;;19.60;10.80;;;;;;;-0.36;83.43;101440.04;130091;1260;115319;-64
2024/01/12 02:02:57;;;;;;;21.00;11.10;;;;;;;-0.35;83.56;101437.24;129867;1270;114791;-64
2024/01/12 02:05:59;;;;;;;22.40;11.10;;;;;;;-0.32;83.68;101442.02;129972;1260;115183;-64
2024/01/12 02:09:03;;;;;;;20.80;10.30;;;;;;;-0.27;83.85;101442.61;129782;1267;114701;-64
2024/01/12 02:12:06;;;;;;;22.40;11.10;;;;;;;-0.26;83.77;101445.78;130039;1278;127953;-64
2024/01/12 02:15:09;;;;;;;21.50;10.80;;;;;;;-0.25;83.67;101444.21;130024;1269;115252;-64
2024/01/12 02:18:11;;;;;;;20.60;11.70;;;;;;;-0.24;83.76;101446.33;130022;1260;114878;-64
2024/01/12 02:21:13;;;;;;;20.10;11.70;;;;;;;-0.24;83.78;101444.77;130074;1269;114808;-64
2024/01/12 02:24:15;;;;;;;20.20;11.20;;;;;;;-0.22;83.84;101445.31;130038;1278;114923;-64
2024/01/12 02:27:17;;;;;;;21.80;12.70;;;;;;;-0.21;83.77;101445.84;129761;1257;115088;-64
2024/01/12 02:30:19;;;;;;;22.60;12.50;;;;;;;-0.20;84.00;101446.77;129816;1263;114807;-64
2024/01/12 02:33:21;;;;;;;21.10;10.60;;;;;;;-0.18;83.82;101444.66;129853;1270;114850;-64
2024/01/12 02:36:27;;;;;;;25.10;10.60;;;;;;;-0.17;83.81;101443.81;130031;1260;114732;-64
2024/01/12 02:39:29;;;;;;;20.10;11.70;;;;;;;-0.17;83.98;101446.10;129790;1261;114938;-65
2024/01/12 02:42:31;;;;;;;18.30;10.20;;;;;;;-0.18;83.96;101444.49;130145;1256;114684;-64
2024/01/12 02:45:33;;;;;;;18.20;10.00;;;;;;;-0.18;83.66;101443.27;130120;1261;114928;-64
2024/01/12 02:48:35;;;;;;;22.10;12.60;;;;;;;-0.16;83.85;101448.38;129774;1272;114889;-64
2024/01/12 02:51:37;;;;;;;26.40;14.10;;;;;;;-0.16;83.56;101449.26;129961;1271;114840;-64
2024/01/12 02:54:38;;;;;;;23.40;13.20;;;;;;;-0.15;84.03;101448.20;130162;1270;114693;-64
2024/01/12 02:57:40;;;;;;;22.10;12.10;;;;;;;-0.14;83.89;101447.52;129848;1260;115168;-64
2024/01/12 03:00:42;;;;;;;22.00;13.00;;;;;;;-0.16;83.75;101446.27;130175;1260;114812;-64
2024/01/12 03:03:44;;;;;;;21.90;11.60;;;;;;;-0.16;84.07;101447.33;130065;1261;114850;-64
2024/01/12 03:06:46;;;;;;;18.90;11.60;;;;;;;-0.15;84.10;101445.58;129834;1264;114754;-64
2024/01/12 03:09:48;;;;;;;24.30;12.50;;;;;;;-0.14;84.14;101442.27;130310;1263;114834;-64
2024/01/12 03:12:49;;;;;;;24.80;12.30;;;;;;;-0.11;84.17;101440.52;130225;1278;115179;-64
2024/01/12 03:15:51;;;;;;;21.90;11.20;;;;;;;-0.10;84.18;101437.57;129781;1260;127857;-64
2024/01/12 03:18:53;;;;;;;21.80;12.20;;;;;;;-0.09;84.39;101437.05;130078;1278;114781;-64
2024/01/12 03:21:55;;;;;;;21.40;11.20;;;;;;;-0.07;84.23;101434.80;130215;1261;114699;-65
2024/01/12 03:24:56;;;;;;;21.90;11.10;;;;;;;-0.06;84.21;101434.61;129833;1263;114982;-64
2024/01/12 03:27:59;;;;;;;20.70;11.70;;;;;;;-0.06;84.16;101429.20;130110;1278;114818;-64
2024/01/12 03:31:01;;;;;;;24.10;13.60;;;;;;;-0.04;84.28;101427.98;130121;1257;114730;-64
2024/01/12 03:34:03;;;;;;;23.00;12.20;;;;;;;-0.04;84.38;101428.86;129858;1263;114817;-64
2024/01/12 03:37:05;;;;;;;25.50;13.30;;;;;;;-0.02;84.40;101427.66;130108;1259;114739;-64
2024/01/12 03:40:07;;;;;;;21.20;11.00;;;;;;;0.00;84.33;101430.66;130188;1267;115141;-64
2024/01/12 03:43:09;;;;;;;20.80;11.20;;;;;;;0.03;84.32;101434.56;129805;1264;114911;-64
2024/01/12 03:46:10;;;;;;;22.90;11.00;;;;;;;0.04;84.10;101426.48;130180;1268;114768;-64
2024/01/12 03:49:12;;;;;;;22.80;10.80;;;;;;;0.04;84.39;101420.19;129870;1260;114811;-65
2024/01/12 03:52:14;;;;;;;23.50;13.00;;;;;;;0.04;84.52;101418.25;130158;1254;114724;-65
2024/01/12 03:55:16;;;;;;;23.70;11.20;;;;;;;0.05;84.32;101426.33;130147;1257;115246;-65
2024/01/12 03:58:18;;;;;;;26.20;12.00;;;;;;;0.06;84.43;101426.54;130234;1260;115096;-65
2024/01/12 04:01:21;;;;;;;25.30;12.60;;;;;;;0.08;84.43;101426.55;129829;1260;127567;-65
2024/01/12 04:04:23;;;;;;;23.40;10.40;;;;;;;0.09;84.48;101429.02;129815;1264;116480;-65
2024/01/12 04:07:25;;;;;;;22.00;10.80;;;;;;;0.08;84.47;101426.02;130163;1258;114899;-64
2024/01/12 04:10:27;;;;;;;27.10;11.20;;;;;;;0.09;84.11;101434.10;130202;1261;114708;-64
2024/01/12 04:13:28;;;;;;;29.10;13.50;;;;;;;0.08;84.31;101439.20;129822;1260;114885;-64
2024/01/12 04:16:30;;;;;;;28.70;12.60;;;;;;;0.06;84.55;101441.46;130156;1264;114811;-64
2024/01/12 04:19:32;;;;;;;27.70;13.70;;;;;;;0.06;84.51;101438.30;130194;1267;114728;-64
2024/01/12 04:22:34;;;;;;;31.20;13.40;;;;;;;0.08;84.52;101440.25;130135;1255;129223;-64
2024/01/12 04:25:36;;;;;;;28.00;13.20;;;;;;;0.09;84.57;101447.27;130144;1261;114698;-65
2024/01/12 04:28:38;;;;;;;25.50;13.10;;;;;;;0.09;84.35;101451.15;130219;1259;114731;-64
2024/01/12 04:31:40;;;;;;;26.60;13.20;;;;;;;0.11;84.69;101452.05;129849;1278;115106;-64
2024/01/12 04:34:42;;;;;;;26.20;12.80;;;;;;;0.12;84.76;101449.08;130181;1259;114790;-64
2024/01/12 04:37:44;;;;;;;30.60;13.10;;;;;;;0.12;84.56;101450.67;130145;1257;114717;-64
2024/01/12 04:40:45;;;;;;;29.50;14.10;;;;;;;0.11;84.40;101455.40;130078;1260;114731;-64
2024/01/12 04:43:47;;;;;;;24.90;13.60;;;;;;;0.08;84.23;101454.13;130041;1260;114695;-64
2024/01/12 04:46:49;;;;;;;33.70;18.90;;;;;;;0.07;84.59;101458.68;130171;1261;114725;-65
2024/01/12 04:49:54;;;;;;;35.70;21.00;;;;;;;0.11;84.77;101459.05;130130;1278;115177;-64
2024/01/12 04:52:56;;;;;;;30.20;15.70;;;;;;;0.11;84.52;101457.33;129836;1263;114911;-64
2024/01/12 04:55:58;;;;;;;30.30;17.50;;;;;;;0.13;84.64;101455.77;130204;1278;114799;-64
2024/01/12 04:59:00;;;;;;;32.00;16.90;;;;;;;0.14;84.72;101456.66;130221;1258;115093;-64
2024/01/12 05:02:02;;;;;;;29.50;16.60;;;;;;;0.15;84.53;101456.66;129841;1278;114766;-65
2024/01/12 05:05:05;;;;;;;33.60;17.10;;;;;;;0.17;84.78;101462.14;130070;1257;114750;-62
2024/01/12 05:08:07;;;;;;;33.00;17.20;;;;;;;0.15;84.69;101462.30;129505;1257;115068;-62
2024/01/12 05:11:09;;;;;;;29.50;14.00;;;;;;;0.16;84.75;101457.21;129832;1258;114750;-64
2024/01/12 05:14:11;;;;;;;31.80;13.90;;;;;;;0.18;84.77;101455.47;129850;1263;114741;-64
2024/01/12 05:17:14;;;;;;;32.30;14.10;;;;;;;0.18;84.63;101455.46;130122;1258;115184;-64
2024/01/12 05:20:16;;;;;;;29.60;14.60;;;;;;;0.19;84.55;101456.01;130268;1257;114786;-64
2024/01/12 05:23:19;;;;;;;32.10;16.40;;;;;;;0.20;84.55;101452.68;130137;1260;114747;-65
2024/01/12 05:26:21;;;;;;;32.40;18.00;;;;;;;0.20;84.62;101453.73;129769;1278;127219;-64
2024/01/12 05:29:23;;;;;;;30.60;14.80;;;;;;;0.19;84.76;101458.65;129895;1261;115277;-64
2024/01/12 05:32:25;;;;;;;31.40;14.50;;;;;;;0.21;84.46;101462.70;130117;1259;114733;-64
2024/01/12 05:35:27;;;;;;;33.80;14.20;;;;;;;0.20;84.76;101463.77;129820;1257;114952;-64
2024/01/12 05:38:28;;;;;;;27.20;13.30;;;;;;;0.21;84.46;101468.85;130220;1254;114722;-64
2024/01/12 05:41:31;;;;;;;27.30;12.70;;;;;;;0.19;84.45;101475.16;130250;1260;115329;-63
2024/01/12 05:44:33;;;;;;;28.00;15.70;;;;;;;0.18;84.59;101476.55;129970;1276;114802;-63
2024/01/12 05:47:36;;;;;;;39.80;21.50;;;;;;;0.19;84.79;101477.60;130206;1260;114802;-64
2024/01/12 05:50:38;;;;;;;35.60;17.80;;;;;;;0.19;84.80;101480.95;130290;1254;114777;-63
2024/01/12 05:53:40;;;;;;;24.90;12.40;;;;;;;0.18;84.50;101481.48;129568;1261;114972;-63
2024/01/12 05:56:43;;;;;;;21.90;10.20;;;;;;;0.16;84.37;101481.27;129936;1258;114743;-63
2024/01/12 05:59:45;;;;;;;22.50;11.30;;;;;;;0.11;84.25;101482.61;130223;1278;114715;-63
2024/01/12 06:02:47;;;;;;;20.80;10.10;;;;;;;0.09;84.24;101481.71;129769;1264;114948;-63
2024/01/12 06:05:51;;;;;;;20.80;10.60;;;;;;;0.07;84.09;101478.70;130251;1277;115321;-64
2024/01/12 06:08:53;;;;;;;18.20;9.00;;;;;;;0.03;83.89;101481.98;129962;1259;114821;-63
2024/01/12 06:11:54;;;;;;;21.10;11.00;;;;;;;0.01;83.73;101476.34;130179;1259;114703;-64
2024/01/12 06:14:56;;;;;;;21.40;9.90;;;;;;;-0.02;84.05;101482.10;129972;1277;115241;-63
2024/01/12 06:17:59;;;;;;;21.60;9.90;;;;;;;-0.01;84.18;101482.12;129779;1254;114830;-63
2024/01/12 06:21:01;;;;;;;20.40;11.30;;;;;;;0.00;84.11;101483.70;130023;1255;114789;-63
2024/01/12 06:24:04;;;;;;;19.30;9.20;;;;;;;-0.02;83.91;101484.21;129953;1259;114796;-63
2024/01/12 06:27:06;;;;;;;15.20;7.70;;;;;;;-0.07;83.73;101483.61;129971;1259;114724;-64
2024/01/12 06:30:09;;;;;;;16.40;7.50;;;;;;;-0.12;83.32;101484.08;129494;1277;128547;-63
2024/01/12 06:33:14;;;;;;;15.20;7.60;;;;;;;-0.21;83.17;101483.24;129915;1270;114782;-63
2024/01/12 06:36:16;;;;;;;18.20;9.60;;;;;;;-0.27;83.27;101485.80;129864;1271;114756;-63
2024/01/12 06:39:18;;;;;;;16.60;7.70;;;;;;;-0.27;83.41;101493.52;129930;1278;115322;-63
2024/01/12 06:42:20;;;;;;;21.60;9.00;;;;;;;-0.27;83.22;101491.41;129853;1261;114817;-64
2024/01/12 06:45:22;;;;;;;18.20;8.70;;;;;;;-0.29;83.34;101490.69;129904;1260;114731;-63
2024/01/12 06:48:24;;;;;;;17.10;9.20;;;;;;;-0.31;83.35;101495.76;129830;1260;114786;-64
2024/01/12 06:51:26;;;;;;;18.40;8.40;;;;;;;-0.30;83.55;101496.64;130129;1257;114642;-63
2024/01/12 06:54:28;;;;;;;15.40;9.20;;;;;;;-0.30;83.47;101501.20;129945;1262;114733;-63
2024/01/12 06:57:30;;;;;;;16.80;8.90;;;;;;;-0.30;83.26;101503.48;129845;1259;115195;-63
2024/01/12 07:00:32;;;;;;;17.40;8.20;;;;;;;-0.29;83.55;101509.81;129937;1256;115212;-65
2024/01/12 07:03:34;;;;;;;19.30;10.30;;;;;;;-0.27;83.57;101509.50;129831;1278;114933;-64
2024/01/12 07:06:36;;;;;;;21.40;9.30;;;;;;;-0.24;83.70;101506.71;129731;1273;114672;-63
2024/01/12 07:09:39;;;;;;;21.70;10.50;;;;;;;-0.22;83.70;101509.41;129736;1259;114891;-63
2024/01/12 07:12:41;;;;;;;19.50;10.90;;;;;;;-0.19;83.95;101504.36;129897;1278;127924;-63
2024/01/12 07:15:43;;;;;;;20.00;8.40;;;;;;;-0.16;83.64;101508.08;129908;1255;115405;-64
2024/01/12 07:18:45;;;;;;;18.80;9.80;;;;;;;-0.16;83.65;101514.05;129994;1261;114732;-63
2024/01/12 07:21:47;;;;;;;17.10;9.30;;;;;;;-0.13;83.74;101518.64;129890;1275;115081;-63
2024/01/12 07:24:49;;;;;;;19.70;9.80;;;;;;;-0.10;83.62;101528.53;129834;1272;115194;-63
2024/01/12 07:27:51;;;;;;;17.30;8.50;;;;;;;-0.09;83.46;101522.75;129906;1256;114788;-63
2024/01/12 07:30:54;;;;;;;19.70;8.60;;;;;;;-0.08;83.41;101528.02;129344;1263;115089;-64
2024/01/12 07:33:56;;;;;;;15.90;8.30;;;;;;;-0.07;83.57;101525.22;129583;1278;127832;-63
2024/01/12 07:36:59;;;;;;;17.60;8.60;;;;;;;-0.07;83.48;101524.17;129812;1277;115247;-63
2024/01/12 07:40:01;;;;;;;17.90;8.60;;;;;;;-0.07;83.37;101521.55;129979;1260;115326;-63
2024/01/12 07:43:03;;;;;;;17.10;8.80;;;;;;;-0.04;83.66;101513.86;129562;1277;115084;-63
2024/01/12 07:46:05;;;;;;;16.60;7.70;;;;;;;-0.00;83.50;101495.47;129894;1257;114722;-63
2024/01/12 07:49:07;;;;;;;21.00;8.60;;;;;;;0.04;83.64;101494.30;129623;1260;114820;-63
2024/01/12 07:52:09;;;;;;;16.20;8.80;;;;;;;0.06;83.52;101496.60;129987;1269;114724;-64
2024/01/12 07:55:11;;;;;;;16.30;8.00;;;;;;;0.05;83.38;101494.48;130270;1259;114802;-63
2024/01/12 07:58:13;;;;;;;16.80;8.00;;;;;;;0.06;83.64;101493.63;129797;1254;115164;-64
2024/01/12 08:01:17;;;;;;;20.00;8.90;;;;;;;0.09;83.56;101490.85;129783;1260;115016;-63
2024/01/12 08:04:20;;;;;;;18.80;8.40;;;;;;;0.15;83.75;101488.46;129832;1260;114795;-63
2024/01/12 08:07:22;;;;;;;16.40;8.50;;;;;;;0.24;83.63;101488.56;129545;1261;114826;-64
2024/01/12 08:10:24;;;;;;;16.30;8.80;;;;;;;0.30;83.59;101490.92;129917;1257;116416;-63
2024/01/12 08:13:26;;;;;;;15.30;7.80;;;;;;;0.32;83.22;101486.56;129916;1255;115707;-64
2024/01/12 08:16:29;;;;;;;16.60;8.10;;;;;;;0.35;83.25;101490.45;130116;1260;128849;-64
2024/01/12 08:19:31;;;;;;;17.40;8.20;;;;;;;0.43;83.48;101482.81;130142;1270;114746;-64
2024/01/12 08:22:33;;;;;;;17.90;9.10;;;;;;;0.52;83.37;101480.11;130286;1259;114817;-64
2024/01/12 08:25:35;;;;;;;20.30;10.60;;;;;;;0.63;83.56;101486.03;129582;1254;114955;-64
2024/01/12 08:28:37;;;;;;;20.50;10.50;;;;;;;0.72;83.58;101487.89;130271;1256;115209;-64
2024/01/12 08:31:38;;;;;;;17.90;10.20;;;;;;;0.79;83.43;101489.35;129877;1270;114718;-64
2024/01/12 08:34:40;;;;;;;18.10;9.10;;;;;;;0.84;83.15;101488.17;129489;1261;115009;-64
2024/01/12 08:37:42;;;;;;;18.80;8.30;;;;;;;0.87;83.06;101483.27;129811;1259;114809;-64
2024/01/12 08:40:45;;;;;;;19.90;9.60;;;;;;;0.89;82.89;101483.66;130307;1254;114821;-64
2024/01/12 08:43:47;;;;;;;20.00;10.50;;;;;;;0.93;83.05;101480.52;129676;1260;114785;-64
2024/01/12 08:46:50;;;;;;;17.60;9.30;;;;;;;0.98;82.95;101473.52;129843;1259;115054;-64
2024/01/12 08:49:52;;;;;;;18.10;9.30;;;;;;;1.05;83.19;101476.23;129868;1259;115381;-64
2024/01/12 08:52:55;;;;;;;19.20;9.40;;;;;;;1.12;83.19;101480.15;129982;1254;114694;-65
2024/01/12 08:55:58;;;;;;;17.50;9.20;;;;;;;1.14;82.73;101474.38;129963;1261;114818;-64
2024/01/12 08:59:00;;;;;;;21.80;10.80;;;;;;;1.16;82.92;101476.31;130115;1254;114769;-65
2024/01/12 09:02:01;;;;;;;19.70;9.50;;;;;;;1.18;82.89;101478.27;130227;1260;114726;-66
2024/01/12 09:05:05;;;;;;;19.30;10.60;;;;;;;1.18;82.86;101467.19;130243;1259;114755;-65
2024/01/12 09:08:07;;;;;;;20.10;10.60;;;;;;;1.25;82.91;101465.30;129693;1260;115562;-64
2024/01/12 09:11:11;;;;;;;23.10;10.60;;;;;;;1.30;82.82;101464.46;130197;1259;115257;-65
2024/01/12 09:14:13;;;;;;;24.60;11.50;;;;;;;1.33;82.94;101459.20;130270;1259;114811;-69
2024/01/12 09:17:15;;;;;;;26.30;12.50;;;;;;;1.38;82.61;101460.47;130317;1255;114718;-68
2024/01/12 09:20:18;;;;;;;30.10;14.90;;;;;;;1.39;82.62;101455.38;130276;1259;114722;-68
2024/01/12 09:23:20;;;;;;;25.30;11.90;;;;;;;1.41;82.74;101456.27;130199;1262;114719;-67
2024/01/12 09:26:23;;;;;;;30.00;12.80;;;;;;;1.41;82.61;101455.75;130362;1259;115127;-67
2024/01/12 09:29:25;;;;;;;25.60;11.40;;;;;;;1.42;82.53;101461.55;130151;1259;115164;-66
2024/01/12 09:32:27;;;;;;;22.40;11.00;;;;;;;1.41;82.36;101459.61;130397;1259;114717;-67
2024/01/12 09:35:29;;;;;;;22.90;10.60;;;;;;;1.38;82.31;101466.64;129984;1277;114763;-67
2024/01/12 09:38:31;;;;;;;29.00;11.90;;;;;;;1.38;82.15;101471.91;130271;1278;114808;-67
2024/01/12 09:41:45;;;;;;;56.80;28.60;;;;;;;1.40;82.40;101470.52;130304;1259;114701;-67
2024/01/12 09:44:50;;;;;;;35.00;17.10;;;;;;;1.43;82.31;101471.77;130118;1255;114838;-66
2024/01/12 09:47:53;;;;;;;40.50;18.80;;;;;;;1.46;82.38;101473.92;130423;1257;114879;-65
2024/01/12 09:50:56;;;;;;;37.90;18.10;;;;;;;1.48;81.99;101468.30;130219;1254;114744;-66
2024/01/12 09:53:58;;;;;;;23.80;13.10;;;;;;;1.48;82.24;101465.30;130271;1259;114809;-66
2024/01/12 09:57:02;;;;;;;24.20;12.60;;;;;;;1.48;81.81;101468.83;130239;1259;114699;-69
2024/01/12 10:00:10;;;;;;;25.00;13.30;;;;;;;1.49;82.18;101472.34;130196;1259;114736;-69
2024/01/12 10:03:13;;;;;;;16.90;9.40;;;;;;;1.51;82.05;101462.48;130069;1256;114817;-69
2024/01/12 10:06:15;;;;;;;19.40;10.50;;;;;;;1.54;82.04;101452.30;130085;1257;115142;-67
2024/01/12 10:09:17;;;;;;;29.00;15.60;;;;;;;1.62;82.11;101453.94;129955;1261;116334;-66
2024/01/12 10:12:19;;;;;;;34.70;18.70;;;;;;;1.70;82.31;101458.55;130407;1258;114808;-68
2024/01/12 10:15:21;;;;;;;29.30;15.20;;;;;;;1.74;81.94;101460.88;130171;1261;127650;-66
2024/01/12 10:18:23;;;;;;;24.70;13.60;;;;;;;1.79;81.93;101463.89;130367;1257;114867;-67
2024/01/12 10:21:26;;;;;;;17.50;10.10;;;;;;;1.84;81.71;101461.11;130070;1262;114875;-67
2024/01/12 10:24:30;;;;;;;28.30;12.60;;;;;;;1.92;82.04;101464.66;130349;1256;114697;-68
2024/01/12 10:27:32;;;;;;;25.60;11.70;;;;;;;1.98;81.86;101458.88;130326;1259;114678;-65
2024/01/12 10:30:35;;;;;;;24.00;11.10;;;;;;;2.04;81.74;101457.49;130366;1256;114744;-67
2024/01/12 10:33:38;;;;;;;31.00;13.10;;;;;;;2.13;81.71;101457.55;130194;1259;129048;-67
2024/01/12 10:36:40;;;;;;;29.10;12.40;;;;;;;2.19;81.57;101460.03;130182;1260;115000;-65
2024/01/12 10:39:47;;;;;;;27.80;12.70;;;;;;;2.25;81.29;101455.27;130511;1259;114729;-66
2024/01/12 10:42:49;;;;;;;31.90;12.30;;;;;;;2.29;81.30;101453.38;130052;1259;114818;-66
2024/01/12 10:45:57;;;;;;;33.40;12.80;;;;;;;2.36;81.03;101451.80;129633;1257;114753;-69
2024/01/12 10:49:07;;;;;;;39.80;15.10;;;;;;;2.42;81.00;101448.65;130039;1263;127909;-65
2024/01/12 10:52:38;;;;;;;35.20;12.90;;;;;;;2.50;80.74;101437.73;129909;1256;114818;-65
2024/01/12 10:55:53;;;;;;;38.40;13.10;;;;;;;2.59;80.69;101427.16;129637;1267;114858;-66
2024/01/12 10:58:55;;;;;;;42.30;15.40;;;;;;;2.66;80.52;101420.48;129395;1267;114745;-67
2024/01/12 11:01:58;;;;;;;25.10;11.00;;;;;;;2.74;80.41;101412.90;129536;1262;114919;-67
2024/01/12 11:05:00;;;;;;;32.70;10.50;;;;;;;2.78;80.17;101413.26;129409;1267;114941;-68
2024/01/12 11:08:06;;;;;;;31.10;11.40;;;;;;;2.79;79.92;101416.08;129675;1266;115921;-67
2024/01/12 11:11:08;;;;;;;;;;;;;;;2.78;79.72;101414.30;129517;1266;114711;-67
2024/01/12 11:14:10;;;;;;;36.90;12.70;;;;;;;2.77;79.67;101407.09;129483;1267;135666;-67
2024/01/12 11:17:12;;;;;;;51.70;16.80;;;;;;;2.78;79.54;101404.80;129499;1262;114760;-66
2024/01/12 11:20:18;;;;;;;52.40;17.60;;;;;;;2.82;79.41;101398.61;129327;1262;114909;-67
2024/01/12 11:23:20;;;;;;;42.70;13.90;;;;;;;2.83;79.24;101394.56;129430;1266;114813;-66
2024/01/12 11:26:22;;;;;;;17.70;7.50;;;;;;;2.81;79.05;101377.27;129523;1267;114842;-66
2024/01/12 11:29:34;;;;;;;43.60;13.90;;;;;;;2.81;78.95;101371.80;129488;1267;114786;-68
2024/01/12 11:32:36;;;;;;;56.40;16.80;;;;;;;2.82;78.97;101368.09;129628;1259;114859;-67
2024/01/12 11:35:39;;;;;;;44.50;24.20;;;;;;;2.84;79.10;101362.09;130248;1259;115184;-68
2024/01/12 11:38:42;;;;;;;20.20;11.80;;;;;;;2.85;78.74;101350.27;130155;1278;115383;-68
2024/01/12 11:41:46;;;;;;;12.50;7.90;;;;;;;2.82;78.56;101354.15;130222;1259;114712;-67
2024/01/12 11:44:48;;;;;;;24.40;13.60;;;;;;;2.80;78.43;101347.81;129773;1264;114835;-67
2024/01/12 11:47:50;;;;;;;16.50;9.40;;;;;;;2.79;78.41;101334.23;129761;1259;114755;-68
2024/01/12 11:50:52;;;;;;;15.00;8.50;;;;;;;2.76;78.08;101334.58;129863;1282;114914;-67
2024/01/12 11:53:57;;;;;;;13.20;7.60;;;;;;;2.71;77.89;101332.99;129866;1264;114803;-67
2024/01/12 11:57:01;;;;;;;14.40;8.20;;;;;;;2.72;77.85;101327.70;129754;1264;114723;-66
2024/01/12 12:00:09;;;;;;;15.10;7.90;;;;;;;2.75;78.15;101322.05;129794;1264;128584;-64
2024/01/12 12:03:11;;;;;;;19.00;8.40;;;;;;;2.76;77.88;101317.29;129538;1264;114705;-66
2024/01/12 12:06:14;;;;;;;18.90;8.90;;;;;;;2.74;77.69;101306.17;130455;1259;115322;-66
2024/01/12 12:09:17;;;;;;;17.90;8.20;;;;;;;2.73;77.52;101295.41;130441;1259;114816;-67
2024/01/12 12:12:22;;;;;;;19.70;8.70;;;;;;;2.72;77.55;101291.90;130274;1259;114955;-66
2024/01/12 12:15:25;;;;;;;16.20;7.30;;;;;;;2.70;77.47;101292.79;129923;1256;114967;-67
2024/01/12 12:18:30;;;;;;;16.70;8.20;;;;;;;2.69;77.18;101294.02;130251;1259;114742;-67
2024/01/12 12:21:33;;;;;;;14.30;7.90;;;;;;;2.61;76.70;101295.96;130280;1256;114706;-68
2024/01/12 12:24:36;;;;;;;13.10;6.80;;;;;;;2.54;77.06;101297.19;130248;1256;114783;-66
2024/01/12 12:27:39;;;;;;;16.40;9.80;;;;;;;2.48;76.74;101299.84;129929;1257;114799;-63
2024/01/12 12:30:43;;;;;;;13.00;7.40;;;;;;;2.38;76.97;101290.51;129972;1265;114751;-64
2024/01/12 12:33:45;;;;;;;15.40;6.70;;;;;;;2.34;77.12;101276.74;130248;1256;114719;-64
2024/01/12 12:36:47;;;;;;;14.40;7.10;;;;;;;2.25;76.78;101265.29;130166;1259;114815;-63
2024/01/12 12:39:49;;;;;;;13.20;6.60;;;;;;;2.22;76.97;101266.70;129581;1278;114772;-65
2024/01/12 12:42:51;;;;;;;14.60;5.90;;;;;;;2.16;76.83;101274.63;129863;1259;114657;-63
2024/01/12 12:45:54;;;;;;;10.20;5.60;;;;;;;2.10;77.03;101272.32;129920;1259;114688;-64
2024/01/12 12:48:56;;;;;;;9.90;6.00;;;;;;;2.04;76.78;101282.71;130242;1257;115169;-63
2024/01/12 12:51:59;;;;;;;10.60;5.90;;;;;;;1.96;76.63;101297.85;130099;1259;115269;-63
2024/01/12 12:55:03;;;;;;;11.50;6.50;;;;;;;1.89;76.61;101295.02;129601;1264;115519;-63
2024/01/12 12:58:05;;;;;;;9.70;5.70;;;;;;;1.83;76.80;101289.72;129813;1257;114744;-64
2024/01/12 13:01:07;;;;;;;10.40;4.90;;;;;;;1.76;76.76;101288.81;129892;1257;115313;-63
2024/01/12 13:04:09;;;;;;;10.10;6.30;;;;;;;1.67;76.68;101287.39;129793;1263;114849;-65
2024/01/12 13:07:11;;;;;;;12.30;6.70;;;;;;;1.59;76.87;101277.33;129736;1259;115248;-64
2024/01/12 13:10:14;;;;;;;13.70;7.70;;;;;;;1.54;76.87;101271.33;129668;1265;114753;-64
2024/01/12 13:13:18;;;;;;;12.00;6.10;;;;;;;1.48;76.87;101263.20;129647;1259;115040;-64
2024/01/12 13:16:20;;;;;;;12.50;7.10;;;;;;;1.45;77.01;101250.34;129674;1263;115155;-64
2024/01/12 13:19:22;;;;;;;14.70;6.20;;;;;;;1.42;76.95;101251.73;129764;1259;115606;-64
2024/01/12 13:22:25;;;;;;;12.50;6.70;;;;;;;1.36;77.12;101257.34;129550;1267;114795;-65
2024/01/12 13:25:27;;;;;;;14.60;7.50;;;;;;;1.32;77.22;101265.42;129762;1263;114847;-63
2024/01/12 13:28:29;;;;;;;15.50;7.10;;;;;;;1.29;77.15;101258.57;129747;1256;114895;-64
2024/01/12 13:31:35;;;;;;;12.90;7.50;;;;;;;1.28;77.26;101246.92;129922;1256;114782;-63
2024/01/12 13:34:37;;;;;;;12.90;6.30;;;;;;;1.28;77.33;101249.05;129825;1278;114728;-63
2024/01/12 13:37:40;;;;;;;12.90;7.20;;;;;;;1.28;77.30;101250.27;129836;1278;114726;-63
2024/01/12 13:40:42;;;;;;;12.60;6.90;;;;;;;1.27;77.22;101249.22;130164;1259;115238;-63